Time;durP1;ratioP1;P1;durP2;ratioP2;P2;SDS_P1;SDS_P2;PMS_P1;PMS_P2;Temp;Humidity;BMP_temperature;BMP_pressure;BME280_temperature;BME280_humidity;BME280_pressure;Samples;Min_cycle;Max_cycle;Signal;HPM_P1;HPM_P2
2022/05/11 00:00:09;;;;;;;9.85;6.53;;;;;;;17.33;71.29;100143.13;2920374;80;21064;-91
2022/05/11 00:04:13;;;;;;;7.60;6.58;;;;;;;17.38;71.26;100134.02;2929721;80;21903;-89
2022/05/11 00:08:14;;;;;;;11.33;7.50;;;;;;;17.43;70.82;100128.66;2904368;80;21019;-89
2022/05/11 00:12:15;;;;;;;18.20;7.42;;;;;;;17.46;70.60;100124.27;2899615;80;21093;-87
2022/05/11 00:16:16;;;;;;;19.02;7.53;;;;;;;17.51;70.79;100115.16;2925882;80;21039;-90
2022/05/11 00:20:19;;;;;;;13.60;6.05;;;;;;;17.58;70.38;100113.43;2900466;80;21026;-90
2022/05/11 00:24:20;;;;;;;10.43;6.58;;;;;;;17.65;70.16;100110.88;2930881;80;20998;-88
2022/05/11 00:28:22;;;;;;;14.33;6.03;;;;;;;17.73;69.87;100110.00;2906732;80;21009;-90
2022/05/11 00:32:25;;;;;;;8.78;6.55;;;;;;;17.81;69.57;100104.06;2912821;80;21062;-90
2022/05/11 00:36:27;;;;;;;9.13;5.47;;;;;;;17.88;68.83;100104.69;2861238;80;21072;-90
2022/05/11 00:40:28;;;;;;;11.48;5.92;;;;;;;17.93;68.72;100102.32;2908027;80;21696;-90
2022/05/11 00:44:30;;;;;;;11.70;6.30;;;;;;;17.98;68.53;100099.92;2888066;80;21087;-89
2022/05/11 00:53:11;;;;;;;8.40;6.28;;;;;;;18.04;68.10;100097.87;2882700;81;21018;-89
2022/05/11 00:57:21;;;;;;;6.20;5.45;;;;;;;18.08;67.64;100097.87;2898254;81;21062;-90
2022/05/11 01:01:24;;;;;;;12.30;4.78;;;;;;;18.11;67.96;100097.51;2909294;81;21047;-88
2022/05/11 01:05:25;;;;;;;7.05;4.97;;;;;;;18.13;67.58;100091.44;2925062;81;21007;-90
2022/05/11 01:09:26;;;;;;;5.30;4.62;;;;;;;18.15;67.56;100085.85;2905044;81;21581;-90
2022/05/11 01:13:30;;;;;;;8.58;4.53;;;;;;;18.17;67.54;100085.16;2914556;80;20988;-89
2022/05/11 01:17:37;;;;;;;5.53;4.70;;;;;;;18.22;67.54;100083.28;2907494;81;21023;-90
2022/05/11 01:21:49;;;;;;;5.10;4.60;;;;;;;18.21;67.50;100076.22;2945930;80;21007;-90
2022/05/11 01:25:51;;;;;;;7.50;5.53;;;;;;;18.23;67.27;100082.26;2935852;81;21043;-89
2022/05/11 01:29:54;;;;;;;6.00;4.60;;;;;;;18.23;67.35;100076.38;2895953;82;21070;-91
2022/05/11 01:33:58;;;;;;;5.10;4.60;;;;;;;18.25;67.12;100078.38;2916588;81;21050;-90
2022/05/11 01:38:39;;;;;;;7.22;4.78;;;;;;;18.25;66.94;100072.14;2922320;80;21140;-89
2022/05/11 01:42:41;;;;;;;7.30;4.70;;;;;;;18.25;66.90;100069.45;2925701;80;21010;-90
2022/05/11 01:46:50;;;;;;;6.75;5.15;;;;;;;18.24;66.89;100069.12;2850206;80;21015;-89
2022/05/11 01:50:53;;;;;;;5.40;4.47;;;;;;;18.22;66.76;100061.25;2937238;80;20990;-89
2022/05/11 01:54:54;;;;;;;7.42;5.40;;;;;;;18.20;67.04;100058.40;2925960;80;20990;-89
2022/05/11 01:58:56;;;;;;;6.37;5.10;;;;;;;18.21;66.84;100057.37;2931088;80;21058;-88
2022/05/11 02:02:57;;;;;;;5.40;4.90;;;;;;;18.20;66.84;100061.09;2901057;80;21030;-90
2022/05/11 02:11:18;;;;;;;6.60;5.05;;;;;;;18.16;67.00;100049.02;2942940;80;23200;-89
2022/05/11 02:15:20;;;;;;;7.70;5.33;;;;;;;18.14;67.04;100050.53;2909808;80;21076;-89
2022/05/11 02:19:21;;;;;;;7.42;4.97;;;;;;;18.15;67.07;100048.17;2926806;80;21546;-88
2022/05/11 02:23:24;;;;;;;7.22;4.55;;;;;;;18.11;67.18;100043.67;2912138;80;21600;-88
2022/05/11 02:27:25;;;;;;;7.58;5.50;;;;;;;18.10;67.34;100041.16;2926404;80;21061;-88
2022/05/11 02:31:26;;;;;;;11.30;5.30;;;;;;;18.10;67.19;100043.35;2888588;80;21035;-87
2022/05/11 02:35:28;;;;;;;5.78;4.55;;;;;;;18.13;67.05;100043.48;2939472;80;20978;-88
2022/05/11 02:39:29;;;;;;;7.85;5.45;;;;;;;18.13;67.08;100037.60;2917960;80;21019;-89
2022/05/11 02:43:30;;;;;;;6.87;4.67;;;;;;;18.10;67.21;100036.63;2922113;80;21007;-89
2022/05/11 02:47:31;;;;;;;6.95;5.78;;;;;;;18.09;67.19;100033.61;2923492;79;21019;-89
2022/05/11 02:51:33;;;;;;;10.38;5.62;;;;;;;18.08;67.25;100028.39;2870587;79;21018;-88
2022/05/11 02:55:39;;;;;;;5.42;4.78;;;;;;;18.04;67.59;100034.63;2903228;80;21006;-90
2022/05/11 02:59:41;;;;;;;6.95;5.92;;;;;;;18.01;67.57;100036.84;2923594;80;21047;-90
2022/05/11 03:03:42;;;;;;;5.90;5.28;;;;;;;17.97;67.77;100036.36;2883412;81;21044;-88
2022/05/11 03:07:43;;;;;;;6.03;5.47;;;;;;;17.94;67.77;100038.89;2906948;81;21150;-88
2022/05/11 03:11:46;;;;;;;5.78;5.25;;;;;;;17.92;67.81;100039.58;2902893;79;21007;-88
2022/05/11 03:15:47;;;;;;;7.15;5.35;;;;;;;17.88;67.78;100036.93;2889868;81;21015;-90
2022/05/11 03:19:49;;;;;;;6.75;6.15;;;;;;;17.83;67.98;100033.42;2917492;81;21071;-88
2022/05/11 03:23:50;;;;;;;5.80;5.08;;;;;;;17.81;67.90;100040.84;2904483;80;20999;-89
2022/05/11 03:27:53;;;;;;;8.80;6.15;;;;;;;17.75;68.18;100041.56;2957379;77;21281;-85
2022/05/11 03:36:14;;;;;;;5.97;5.50;;;;;;;17.64;68.46;100045.51;2894461;80;21026;-89
2022/05/11 03:40:15;;;;;;;7.33;4.75;;;;;;;17.60;68.57;100039.31;2907648;81;21007;-89
2022/05/11 03:44:16;;;;;;;6.53;5.83;;;;;;;17.56;68.77;100036.98;2884602;82;21086;-89
2022/05/11 03:48:18;;;;;;;5.08;4.62;;;;;;;17.53;68.89;100041.38;2946772;80;21581;-90
2022/05/11 03:52:19;;;;;;;8.30;6.17;;;;;;;17.51;69.17;100042.06;2946966;80;21053;-89
2022/05/11 03:56:20;;;;;;;5.97;5.20;;;;;;;17.51;69.08;100043.41;2915436;81;20964;-89
2022/05/11 04:00:24;;;;;;;5.28;4.58;;;;;;;17.52;69.32;100043.73;2919506;80;21027;-87
2022/05/11 04:04:25;;;;;;;5.90;5.30;;;;;;;17.60;69.25;100044.69;2908285;81;21070;-86
2022/05/11 04:08:27;;;;;;;9.18;5.87;;;;;;;17.66;69.29;100042.62;2884885;82;21050;-85
2022/05/11 04:12:30;;;;;;;6.55;4.85;;;;;;;17.87;69.29;100043.82;2947237;80;21003;-85
2022/05/11 04:16:31;;;;;;;8.43;5.45;;;;;;;18.43;68.29;100040.86;2946193;80;21018;-88
2022/05/11 04:20:32;;;;;;;7.80;5.70;;;;;;;19.16;66.20;100034.84;2896754;80;21050;-90
2022/05/11 04:24:33;;;;;;;10.15;6.45;;;;;;;19.82;64.91;100032.53;2921767;80;22040;-88
2022/05/11 04:28:35;;;;;;;6.05;5.05;;;;;;;20.44;63.56;100031.19;2946633;80;20991;-87
2022/05/11 04:32:36;;;;;;;5.75;4.45;;;;;;;21.11;62.88;100022.14;2921999;80;21101;-86
2022/05/11 04:36:41;;;;;;;4.67;3.87;;;;;;;21.87;60.70;100028.92;2947214;80;21007;-87
2022/05/11 04:40:43;;;;;;;4.92;4.05;;;;;;;22.42;58.78;100026.52;2947250;79;21050;-86
2022/05/11 04:44:44;;;;;;;4.17;3.80;;;;;;;22.85;57.93;100026.03;2946927;80;20991;-86
2022/05/11 04:48:45;;;;;;;6.67;5.53;;;;;;;23.20;56.76;100035.19;2946818;80;20995;-87
2022/05/11 04:52:47;;;;;;;6.67;5.20;;;;;;;23.46;56.36;100037.99;2923499;80;20974;-87
2022/05/11 04:56:48;;;;;;;10.32;4.17;;;;;;;23.60;56.12;100038.23;2947192;80;20999;-86
2022/05/11 05:00:49;;;;;;;6.10;4.40;;;;;;;23.77;55.96;100035.81;2946952;80;20995;-87
2022/05/11 05:04:51;;;;;;;7.12;5.47;;;;;;;24.04;56.16;100047.89;2923370;80;21078;-87
2022/05/11 05:08:52;;;;;;;5.15;4.50;;;;;;;24.43;55.04;100050.47;2896845;80;21038;-87
2022/05/11 05:12:54;;;;;;;5.55;4.47;;;;;;;24.78;54.89;100051.30;2874361;80;21075;-87
2022/05/11 05:17:03;;;;;;;5.45;4.12;;;;;;;25.34;53.97;100044.98;2947670;80;21055;-86
2022/05/11 05:21:04;;;;;;;4.92;4.50;;;;;;;25.67;51.99;100045.08;2869797;81;21078;-87
2022/05/11 05:25:06;;;;;;;6.35;4.92;;;;;;;25.39;52.92;100050.04;2948121;80;21022;-87
2022/05/11 05:33:27;;;;;;;7.85;5.05;;;;;;;24.19;55.15;100050.81;2940215;80;21050;-87
2022/05/11 05:37:28;;;;;;;8.00;6.12;;;;;;;23.64;56.63;100054.37;2834477;80;21048;-87
2022/05/11 05:41:30;;;;;;;6.95;4.08;;;;;;;23.24;57.92;100057.27;2901813;81;21046;-87
2022/05/11 05:45:31;;;;;;;4.53;4.08;;;;;;;22.94;58.71;100054.56;2922617;80;21019;-86
2022/05/11 05:49:32;;;;;;;8.88;4.92;;;;;;;22.76;59.90;100063.39;2909843;80;20995;-87
2022/05/11 05:53:34;;;;;;;6.12;4.87;;;;;;;22.71;60.93;100062.35;2917190;80;21023;-87
2022/05/11 05:57:35;;;;;;;5.15;4.28;;;;;;;22.71;60.86;100065.06;2892464;79;21020;-87
2022/05/11 06:01:36;;;;;;;50.48;15.63;;;;;;;22.76;61.17;100066.09;2912720;80;21066;-87
2022/05/11 06:05:38;;;;;;;8.03;5.80;;;;;;;22.84;61.39;100069.11;2926648;80;21006;-87
2022/05/11 06:09:40;;;;;;;5.58;4.62;;;;;;;22.94;61.23;100070.84;2896019;81;21596;-86
2022/05/11 06:13:45;;;;;;;6.25;5.10;;;;;;;23.01;61.30;100070.01;2924736;80;21027;-87
2022/05/11 06:17:44;;;;;;;8.95;5.30;;;;;;;23.06;60.90;100073.72;2911209;80;21003;-87
2022/05/11 06:21:47;;;;;;;8.18;5.25;;;;;;;23.14;61.44;100071.30;2897684;80;21062;-87
2022/05/11 06:25:51;;;;;;;6.30;5.70;;;;;;;23.25;60.88;100081.52;2871668;80;21027;-86
2022/05/11 06:29:56;;;;;;;11.88;6.75;;;;;;;23.42;61.04;100084.27;2911844;80;21496;-85
2022/05/11 06:33:57;;;;;;;6.87;5.05;;;;;;;23.58;61.54;100086.48;2910235;80;21027;-87
2022/05/11 06:38:04;;;;;;;11.35;6.12;;;;;;;23.91;61.02;100088.17;2922560;80;21515;-87
2022/05/11 06:42:12;;;;;;;6.15;4.95;;;;;;;24.19;60.27;100084.77;2915069;80;21041;-86
2022/05/11 06:46:13;;;;;;;8.50;4.95;;;;;;;24.47;61.14;100087.56;2931138;80;21014;-86
2022/05/11 06:50:14;;;;;;;9.38;5.90;;;;;;;24.66;60.49;100081.61;2849134;80;21026;-86
2022/05/11 07:02:41;;;;;;;7.20;5.03;;;;;;;24.74;60.90;100098.17;2903305;80;21023;-87
2022/05/11 07:06:42;;;;;;;6.85;4.90;;;;;;;24.75;61.31;100100.71;2928500;80;21021;-86
2022/05/11 07:12:17;;;;;;;8.48;5.15;;;;;;;24.75;61.56;100095.27;2921107;80;21046;-87
2022/05/11 07:14:54;;;;;;;5.55;4.37;;;;;;;24.79;61.68;100095.66;2924728;80;21030;-87
2022/05/11 07:18:55;;;;;;;6.05;4.37;;;;;;;24.97;62.58;100093.47;2909922;80;20975;-86
2022/05/11 07:22:57;;;;;;;6.37;4.60;;;;;;;25.44;61.74;100087.47;2908442;81;21027;-86
2022/05/11 07:26:59;;;;;;;8.03;5.67;;;;;;;26.22;61.40;100077.28;2927619;80;20982;-86
2022/05/11 07:31:01;;;;;;;5.90;4.97;;;;;;;26.46;58.99;100077.30;2928534;80;21022;-87
2022/05/11 07:35:04;;;;;;;5.35;4.67;;;;;;;26.45;58.62;100078.36;2880105;80;30393;-87
2022/05/11 07:39:06;;;;;;;13.50;7.33;;;;;;;26.77;57.62;100083.47;2900255;80;21046;-87
2022/05/11 07:43:09;;;;;;;6.62;5.95;;;;;;;27.25;57.99;100078.77;2876982;80;21041;-87
2022/05/11 07:47:10;;;;;;;6.87;4.45;;;;;;;27.74;56.87;100066.08;2901459;80;21022;-87
2022/05/11 07:51:11;;;;;;;7.55;5.37;;;;;;;28.07;55.43;100063.62;2902171;81;21014;-86
2022/05/11 07:55:15;;;;;;;5.72;4.83;;;;;;;28.26;55.33;100058.74;2911088;80;21042;-85
2022/05/11 08:03:36;;;;;;;6.12;5.62;;;;;;;28.18;51.75;100055.08;2905256;81;21538;-86
2022/05/11 08:07:54;;;;;;;6.65;5.55;;;;;;;27.97;52.20;100054.70;2929871;80;21023;-86
2022/05/11 08:11:56;;;;;;;9.70;5.45;;;;;;;27.70;54.97;100058.05;2907174;80;21394;-86
2022/05/11 08:15:57;;;;;;;9.78;5.25;;;;;;;27.67;52.71;100061.28;2919772;80;21034;-86
2022/05/11 08:20:00;;;;;;;5.70;4.42;;;;;;;27.53;51.51;100057.22;2892827;81;21019;-87
2022/05/11 08:24:01;;;;;;;4.45;4.05;;;;;;;27.50;50.76;100057.94;2889689;81;21027;-86
2022/05/11 08:28:10;;;;;;;5.47;4.05;;;;;;;27.41;51.68;100058.05;2921461;80;21010;-86
2022/05/11 08:36:31;;;;;;;7.58;5.35;;;;;;;27.89;49.95;100046.90;2894611;80;20986;-86
2022/05/11 08:40:41;;;;;;;4.40;4.00;;;;;;;28.03;50.39;100044.14;2934041;80;20988;-86
2022/05/11 08:44:47;;;;;;;4.30;3.95;;;;;;;28.08;50.00;100037.37;2943139;80;21480;-87
2022/05/11 08:49:01;;;;;;;4.15;3.80;;;;;;;28.05;49.61;100035.15;2925701;80;20968;-87
2022/05/11 08:53:20;;;;;;;8.10;5.80;;;;;;;28.11;50.52;100029.23;2889728;81;21062;-87
2022/05/11 08:57:26;;;;;;;5.70;4.53;;;;;;;28.13;50.28;100022.97;2907650;81;21069;-87
2022/05/11 09:01:42;;;;;;;6.05;5.47;;;;;;;27.77;51.39;100017.77;2893350;81;21114;-87
2022/05/11 09:05:43;;;;;;;6.92;5.85;;;;;;;27.78;50.13;100013.95;2887920;82;21066;-87
2022/05/11 09:09:45;;;;;;;5.12;4.47;;;;;;;27.90;51.48;100014.39;2949541;80;21574;-87
2022/05/11 09:13:46;;;;;;;7.80;5.75;;;;;;;28.02;50.31;100004.77;2948599;80;20983;-87
2022/05/11 09:17:47;;;;;;;4.67;4.22;;;;;;;28.21;49.81;100005.35;2948360;80;20994;-87
2022/05/11 09:21:57;;;;;;;4.72;4.33;;;;;;;28.30;49.38;100009.34;2948167;80;21038;-87
2022/05/11 09:26:03;;;;;;;4.03;3.65;;;;;;;28.36;49.68;100015.16;2947583;80;21073;-88
2022/05/11 09:30:22;;;;;;;6.75;5.60;;;;;;;28.36;48.74;100017.89;2890827;81;21016;-86
2022/05/11 09:34:33;;;;;;;5.65;3.80;;;;;;;28.38;48.83;100020.91;2937443;80;20975;-87
2022/05/11 09:38:46;;;;;;;4.50;4.08;;;;;;;28.38;48.83;100020.91;2918942;80;21047;-87
2022/05/11 09:42:55;;;;;;;5.22;4.20;;;;;;;28.13;50.09;100022.97;2955863;80;21035;-84
2022/05/11 09:46:56;;;;;;;5.92;4.30;;;;;;;28.31;49.15;100021.92;2934863;79;21019;-86
2022/05/11 09:51:23;;;;;;;4.78;4.30;;;;;;;28.28;49.77;100025.14;2958086;79;20952;-87
2022/05/11 09:55:31;;;;;;;5.78;4.22;;;;;;;28.36;48.96;100023.89;2956930;80;21113;-87
2022/05/11 09:59:49;;;;;;;4.22;3.70;;;;;;;28.28;49.19;100002.45;2911868;79;21013;-87
2022/05/11 10:04:00;;;;;;;5.25;4.75;;;;;;;28.28;47.90;100016.13;2942508;79;20992;-86
2022/05/11 10:08:11;;;;;;;9.65;3.90;;;;;;;28.24;50.28;100014.97;2956111;79;21007;-87
2022/05/11 10:12:16;;;;;;;3.65;3.35;;;;;;;28.32;48.94;100015.38;2925640;79;21031;-86
2022/05/11 10:25:48;;;;;;;6.20;3.60;;;;;;;28.09;48.58;100004.86;2939805;79;21023;-86
2022/05/11 10:30:25;;;;;;;6.33;4.20;;;;;;;28.07;50.56;99998.82;2933071;80;21027;-87
2022/05/11 10:34:42;;;;;;;8.45;4.20;;;;;;;28.04;48.80;100004.80;2958293;79;21129;-87
2022/05/11 10:39:08;;;;;;;6.17;5.67;;;;;;;28.19;49.02;99998.75;2806045;82;21061;-87
2022/05/11 10:43:19;;;;;;;4.00;3.70;;;;;;;28.21;47.74;99978.02;2769072;84;21069;-87
2022/05/11 10:47:52;;;;;;;4.72;4.33;;;;;;;28.21;47.74;99978.02;2780026;84;21061;-87
2022/05/11 10:52:24;;;;;;;4.80;4.22;;;;;;;28.19;47.76;99976.88;2789598;84;21066;-87
2022/05/11 10:57:03;;;;;;;4.97;4.53;;;;;;;28.39;48.43;99971.97;2768413;84;21043;-86
2022/05/11 11:01:16;;;;;;;5.25;4.35;;;;;;;28.45;49.38;99974.53;2762964;85;21038;-87
2022/05/11 11:10:46;;;;;;;5.35;4.85;;;;;;;28.76;48.25;99958.48;2785241;85;21171;-86
2022/05/11 11:14:51;;;;;;;6.10;3.20;;;;;;;28.88;47.61;99956.20;2809462;82;21041;-87
2022/05/11 11:18:53;;;;;;;5.30;3.98;;;;;;;28.86;49.51;99950.16;2865797;81;21065;-86
2022/05/11 11:23:17;;;;;;;6.70;4.45;;;;;;;28.81;49.37;99952.28;2866773;82;21007;-87
2022/05/11 11:27:18;;;;;;;4.42;3.95;;;;;;;28.51;49.15;99948.08;2890127;80;21022;-87
2022/05/11 11:31:22;;;;;;;5.03;3.47;;;;;;;28.70;50.38;99951.87;2876546;80;21623;-87
2022/05/11 11:35:29;;;;;;;4.75;3.58;;;;;;;28.70;50.38;99951.87;2906971;80;21050;-87
2022/05/11 11:40:12;;;;;;;4.58;3.08;;;;;;;28.74;48.73;99941.50;2935024;80;20999;-86
2022/05/11 11:44:30;;;;;;;5.97;5.40;;;;;;;28.67;47.73;99931.30;2901057;79;21245;-84
2022/05/11 11:48:32;;;;;;;6.00;5.03;;;;;;;28.83;49.03;99927.41;2894621;81;21056;-87
2022/05/11 11:52:41;;;;;;;5.67;3.75;;;;;;;28.83;49.03;99927.41;2913652;80;21099;-87
2022/05/11 11:56:47;;;;;;;3.75;3.45;;;;;;;28.93;46.12;99923.41;2912580;80;21047;-87
2022/05/11 12:00:57;;;;;;;4.12;3.40;;;;;;;29.15;46.83;99908.30;2919715;80;21037;-87
2022/05/11 12:05:12;;;;;;;2.85;2.33;;;;;;;29.24;44.93;99903.72;2914199;80;21144;-87
2022/05/11 12:17:59;;;;;;;3.50;3.20;;;;;;;29.38;46.81;99892.62;2930334;80;20995;-86
2022/05/11 12:22:12;;;;;;;3.33;3.00;;;;;;;29.50;46.42;99886.45;2919392;80;21003;-87
2022/05/11 12:26:31;;;;;;;4.80;4.28;;;;;;;29.63;46.08;99880.23;2910172;80;20999;-86
2022/05/11 12:30:42;;;;;;;6.12;3.47;;;;;;;29.78;46.63;99884.45;2919174;80;21062;-86
2022/05/11 12:34:46;;;;;;;4.25;3.20;;;;;;;30.01;47.46;99875.53;2929341;80;21066;-87
2022/05/11 12:38:52;;;;;;;3.77;2.72;;;;;;;30.18;47.49;99870.44;2911426;80;21035;-87
2022/05/11 12:42:56;;;;;;;3.15;2.75;;;;;;;30.15;45.31;99867.67;2921031;80;21042;-86
2022/05/11 12:47:03;;;;;;;3.42;2.83;;;;;;;30.17;45.72;99864.67;2932699;80;21026;-87
2022/05/11 12:51:09;;;;;;;2.40;2.25;;;;;;;30.20;44.18;99856.75;2922992;80;21534;-85
2022/05/11 12:55:12;;;;;;;4.72;2.50;;;;;;;30.34;45.17;99850.22;2905407;80;21027;-87
2022/05/11 12:59:21;;;;;;;4.20;2.67;;;;;;;30.41;44.01;99840.90;2934894;79;21082;-86
2022/05/11 13:03:29;;;;;;;5.72;2.85;;;;;;;30.40;43.04;99835.98;2934899;78;21011;-86
2022/05/11 13:07:44;;;;;;;4.85;3.17;;;;;;;30.32;43.26;99837.85;2919208;80;21011;-86
2022/05/11 13:11:47;;;;;;;3.95;2.55;;;;;;;30.34;44.22;99836.50;2918041;79;20991;-88
2022/05/11 13:15:48;;;;;;;5.22;3.27;;;;;;;30.30;42.71;99819.47;2949216;78;21015;-86
2022/05/11 13:20:00;;;;;;;6.30;3.25;;;;;;;30.23;42.14;99818.34;2948872;79;21035;-91
2022/05/11 13:24:05;;;;;;;6.40;2.80;;;;;;;30.23;43.48;99810.67;2933163;80;21046;-93
2022/05/11 13:28:27;;;;;;;5.28;3.17;;;;;;;30.43;43.95;99810.73;2948197;80;21692;-87
2022/05/11 13:32:28;;;;;;;5.20;3.50;;;;;;;30.62;43.50;99806.14;2938954;79;21019;-89
2022/05/11 13:36:46;;;;;;;6.70;3.40;;;;;;;30.73;42.87;99801.49;2902921;79;21594;-87
2022/05/11 13:40:56;;;;;;;5.20;2.42;;;;;;;30.71;43.28;99792.15;2903904;79;21330;-88
2022/05/11 13:45:05;;;;;;;3.33;3.02;;;;;;;30.75;42.92;99788.31;2891944;80;21097;-88
2022/05/11 13:49:26;;;;;;;4.10;3.37;;;;;;;30.71;43.06;99780.36;2883303;80;21031;-89
2022/05/11 13:53:33;;;;;;;4.33;4.00;;;;;;;30.70;43.79;99775.97;2847589;82;21389;-89
2022/05/11 13:57:38;;;;;;;5.75;3.72;;;;;;;30.68;44.38;99769.94;2950233;79;22014;-87
2022/05/11 14:01:47;;;;;;;18.55;5.55;;;;;;;30.77;43.87;99766.38;2916410;80;20999;-87
2022/05/11 14:05:49;;;;;;;4.45;3.72;;;;;;;30.96;44.32;99762.24;2916319;80;21050;-88
2022/05/11 14:09:51;;;;;;;4.85;4.37;;;;;;;31.03;42.47;99764.15;2886956;80;20981;-87
2022/05/11 14:13:52;;;;;;;5.45;3.60;;;;;;;31.09;42.35;99757.58;2942990;80;21061;-86
2022/05/11 14:17:54;;;;;;;4.37;3.70;;;;;;;31.14;42.63;99756.19;2947792;80;21259;-89
2022/05/11 14:21:57;;;;;;;7.08;4.85;;;;;;;31.16;42.76;99749.86;2948561;80;21018;-85
2022/05/11 14:25:58;;;;;;;4.42;4.08;;;;;;;31.16;44.37;99740.25;2948482;80;20986;-84
2022/05/11 14:29:59;;;;;;;4.25;3.85;;;;;;;30.99;43.71;99736.44;2948442;80;21015;-85
2022/05/11 14:34:01;;;;;;;4.60;4.20;;;;;;;30.99;44.01;99733.70;2894506;80;21046;-86
2022/05/11 14:38:04;;;;;;;4.55;3.85;;;;;;;30.84;43.50;99729.02;2948515;80;21027;-86
2022/05/11 14:42:06;;;;;;;4.40;4.08;;;;;;;30.85;44.63;99722.42;2943426;80;20989;-88
2022/05/11 14:46:20;;;;;;;4.78;4.03;;;;;;;30.93;43.58;99715.56;2937922;81;20984;-88
2022/05/11 14:50:23;;;;;;;5.67;5.17;;;;;;;31.09;44.40;99712.27;2894143;82;20980;-87
2022/05/11 14:54:24;;;;;;;4.37;3.98;;;;;;;31.28;43.66;99706.22;2922030;80;21903;-85
2022/05/11 15:02:45;;;;;;;12.13;5.40;;;;;;;31.26;44.49;99704.30;2846712;81;21023;-88
2022/05/11 15:06:47;;;;;;;8.53;5.42;;;;;;;31.30;44.79;99702.64;2931628;80;20983;-87
2022/05/11 15:10:48;;;;;;;9.23;5.40;;;;;;;31.35;44.37;99694.38;2924530;79;22276;-87
2022/05/11 15:14:49;;;;;;;5.12;4.75;;;;;;;31.25;44.43;99694.38;2950601;79;21028;-87
2022/05/11 15:18:50;;;;;;;4.90;4.35;;;;;;;31.19;45.93;99691.62;2860994;80;21042;-86
2022/05/11 15:22:52;;;;;;;5.30;4.80;;;;;;;31.13;44.23;99685.88;2950009;78;21027;-85
2022/05/11 15:26:53;;;;;;;5.10;4.67;;;;;;;31.14;44.83;99685.31;2950677;79;21035;-86
2022/05/11 15:30:55;;;;;;;7.22;5.05;;;;;;;31.04;45.46;99679.30;2950677;80;21499;-85
2022/05/11 15:35:02;;;;;;;6.95;4.92;;;;;;;30.70;43.99;99672.48;2899417;81;21042;-85
2022/05/11 15:39:00;;;;;;;;;;;;;;;30.53;44.61;99671.91;2901635;81;21038;-88
2022/05/11 15:43:02;;;;;;;5.20;4.42;;;;;;;30.55;46.08;99676.56;2933915;81;20249;-87
2022/05/11 15:47:05;;;;;;;6.03;4.90;;;;;;;30.60;45.80;99665.61;2910862;80;20982;-86
2022/05/11 15:51:11;;;;;;;5.30;4.80;;;;;;;30.47;45.31;99671.11;2925898;81;21035;-88
2022/05/11 15:55:12;;;;;;;6.10;3.60;;;;;;;30.19;45.24;99671.89;2910419;80;21006;-86
2022/05/11 15:59:16;;;;;;;6.03;4.72;;;;;;;29.90;45.09;99673.73;2933200;81;21067;-88
2022/05/11 16:03:20;;;;;;;5.90;4.33;;;;;;;29.61;45.92;99668.69;2910527;81;21014;-88
2022/05/11 16:07:21;;;;;;;5.70;4.83;;;;;;;29.40;46.74;99667.20;2911106;80;20978;-87
2022/05/11 16:11:27;;;;;;;5.47;4.25;;;;;;;29.38;47.51;99655.69;2932885;81;21067;-88
2022/05/11 16:15:28;;;;;;;5.72;5.12;;;;;;;29.43;47.15;99652.19;2909623;81;20986;-88
2022/05/11 16:23:49;;;;;;;4.25;3.95;;;;;;;29.61;46.84;99648.98;2910918;81;21029;-85
2022/05/11 16:27:52;;;;;;;22.40;6.65;;;;;;;29.56;47.32;99642.65;2932215;81;21048;-86
2022/05/11 16:31:55;;;;;;;4.97;3.85;;;;;;;29.55;48.14;99639.08;2947979;79;21074;-86
2022/05/11 16:35:57;;;;;;;14.70;4.70;;;;;;;29.49;47.42;99638.25;2947485;79;20983;-87
2022/05/11 16:40:03;;;;;;;5.08;3.90;;;;;;;29.43;47.47;99637.13;2932952;79;21019;-86
2022/05/11 16:44:02;;;;;;;15.72;4.95;;;;;;;29.37;47.19;99633.51;2952778;78;20991;-85
2022/05/11 16:48:04;;;;;;;8.38;4.22;;;;;;;29.30;47.89;99632.94;2954242;80;21105;-86
2022/05/11 16:52:08;;;;;;;13.70;4.70;;;;;;;29.20;48.10;99630.41;2911370;81;21021;-88
2022/05/11 16:56:10;;;;;;;4.20;3.83;;;;;;;29.11;48.69;99629.28;2916447;80;21003;-88
2022/05/11 17:00:15;;;;;;;7.58;4.35;;;;;;;28.98;48.96;99632.48;2909770;80;21016;-89
2022/05/11 17:04:17;;;;;;;4.95;3.98;;;;;;;28.83;48.65;99625.02;2886821;81;21053;-89
2022/05/11 17:08:19;;;;;;;4.72;3.80;;;;;;;28.67;47.81;99629.50;2898180;80;20997;-86
2022/05/11 17:12:21;;;;;;;7.58;4.40;;;;;;;28.54;48.12;99630.25;2910110;80;21019;-87
2022/05/11 17:16:23;;;;;;;5.20;4.17;;;;;;;28.39;47.85;99628.75;2898412;80;21014;-87
2022/05/11 17:20:24;;;;;;;14.03;6.10;;;;;;;28.24;49.13;99622.06;2928144;79;20968;-86
2022/05/11 17:24:27;;;;;;;4.53;4.08;;;;;;;28.12;49.52;99629.59;2910394;81;20964;-86
2022/05/11 17:28:28;;;;;;;4.72;4.25;;;;;;;28.02;49.80;99628.39;2900566;80;21055;-92
2022/05/11 17:32:32;;;;;;;5.75;3.90;;;;;;;27.77;49.83;99604.36;2940886;79;20978;-86
2022/05/11 17:36:34;;;;;;;5.97;3.85;;;;;;;27.68;50.47;99628.57;2914716;80;21130;-86
2022/05/11 17:40:38;;;;;;;8.95;3.62;;;;;;;27.45;50.48;99616.81;2888676;81;21136;-87
2022/05/11 17:44:39;;;;;;;4.75;3.85;;;;;;;27.28;50.28;99622.88;2903038;81;21028;-87
2022/05/11 17:48:41;;;;;;;4.67;4.17;;;;;;;27.10;50.42;99633.02;2886059;81;21007;-87
2022/05/11 17:52:43;;;;;;;5.42;4.00;;;;;;;26.89;50.25;99629.99;2959729;79;21640;-86
2022/05/11 17:56:44;;;;;;;6.28;3.58;;;;;;;26.69;50.44;99627.77;2889765;81;21500;-86
2022/05/11 18:00:48;;;;;;;3.70;3.40;;;;;;;26.51;50.36;99627.47;2887608;81;21462;-87
2022/05/11 18:04:50;;;;;;;5.70;4.65;;;;;;;26.35;50.43;99634.58;2959242;79;21113;-88
2022/05/11 18:08:51;;;;;;;7.72;3.95;;;;;;;26.19;50.74;99633.50;2960127;78;21474;-86
2022/05/11 18:12:53;;;;;;;7.97;4.28;;;;;;;26.03;50.87;99636.43;2908927;79;20982;-86
2022/05/11 18:16:55;;;;;;;7.70;4.83;;;;;;;25.86;51.06;99630.95;2905769;81;21024;-85
2022/05/11 18:20:56;;;;;;;6.08;5.28;;;;;;;25.69;51.39;99631.72;2902399;80;21027;-84
2022/05/11 18:24:57;;;;;;;13.20;6.83;;;;;;;25.49;51.47;99633.52;2878790;81;20984;-86
2022/05/11 18:28:59;;;;;;;7.10;6.03;;;;;;;25.33;51.66;99632.31;2921884;80;20995;-86
2022/05/11 18:33:00;;;;;;;13.65;6.45;;;;;;;25.17;52.04;99630.65;2911069;81;21050;-86
2022/05/11 18:37:04;;;;;;;7.37;6.67;;;;;;;25.00;52.02;99635.16;2824493;81;21413;-86
2022/05/11 18:41:05;;;;;;;6.92;5.70;;;;;;;24.85;52.22;99628.30;2882531;81;21002;-85
2022/05/11 18:45:08;;;;;;;9.18;7.08;;;;;;;24.71;52.44;99639.07;2937909;80;21519;-85
2022/05/11 18:49:09;;;;;;;8.93;6.25;;;;;;;24.55;52.86;99635.97;2894998;81;21011;-87
2022/05/11 18:53:10;;;;;;;7.90;5.95;;;;;;;24.42;53.20;99637.02;2840266;82;21030;-86
2022/05/11 18:57:11;;;;;;;7.15;6.45;;;;;;;24.28;53.49;99647.28;2948524;80;21003;-87
2022/05/11 19:01:14;;;;;;;10.28;6.78;;;;;;;24.14;53.73;99648.53;2809763;82;21061;-86
2022/05/11 19:05:16;;;;;;;8.83;7.83;;;;;;;24.03;53.96;99652.86;2917774;80;21063;-87
2022/05/11 19:09:20;;;;;;;15.60;9.35;;;;;;;23.90;54.17;99649.26;2893560;81;21064;-87
2022/05/11 19:13:21;;;;;;;14.18;8.08;;;;;;;23.77;54.60;99654.31;2889118;80;20988;-86
2022/05/11 19:17:23;;;;;;;7.53;6.78;;;;;;;23.64;54.70;99655.31;2940537;80;21018;-87
2022/05/11 19:21:24;;;;;;;9.98;6.97;;;;;;;23.51;55.09;99654.95;2856559;81;21003;-87
2022/05/11 19:25:25;;;;;;;8.60;7.40;;;;;;;23.43;55.07;99650.36;2816263;81;20980;-89
2022/05/11 19:29:26;;;;;;;14.18;8.45;;;;;;;23.34;55.09;99652.54;2887460;82;21004;-88
2022/05/11 19:33:30;;;;;;;9.80;6.72;;;;;;;23.23;55.46;99653.58;2948206;80;21062;-88
2022/05/11 19:37:31;;;;;;;10.72;7.75;;;;;;;23.14;55.62;99663.05;2939747;80;20998;-88
2022/05/11 19:41:33;;;;;;;17.00;7.50;;;;;;;23.01;55.79;99663.20;2916981;80;21062;-88
2022/05/11 19:45:35;;;;;;;11.65;8.45;;;;;;;22.88;56.30;99657.34;2832672;81;21551;-88
2022/05/11 19:49:36;;;;;;;86.00;22.20;;;;;;;22.72;57.00;99656.03;2864074;81;21118;-88
2022/05/11 19:53:40;;;;;;;30.88;11.08;;;;;;;22.57;57.14;99651.77;2943358;80;21031;-87
2022/05/11 19:57:43;;;;;;;15.60;8.38;;;;;;;22.42;57.16;99655.31;2899442;81;21047;-87
2022/05/11 20:01:46;;;;;;;9.95;6.53;;;;;;;22.33;57.47;99646.08;2898274;81;21106;-87
2022/05/11 20:05:55;;;;;;;13.28;6.50;;;;;;;22.28;57.31;99645.91;2872541;81;21055;-88
2022/05/11 20:09:57;;;;;;;10.70;7.28;;;;;;;22.25;57.54;99642.30;2921528;81;21022;-88